createdAt,value
2017-06-11T00:00:25.501Z,99.86
2017-06-11T00:01:25.545Z,99.83
2017-06-11T00:02:25.518Z,99.99
2017-06-11T00:03:25.586Z,99.99
2017-06-11T00:04:25.580Z,99.99
2017-06-11T00:05:25.590Z,99.99
2017-06-11T00:06:25.595Z,99.99
2017-06-11T00:07:25.505Z,99.99
2017-06-11T00:08:25.793Z,99.99
2017-06-11T00:09:25.554Z,99.99
2017-06-11T00:10:25.554Z,99.99
2017-06-11T00:11:25.598Z,99.99
2017-06-11T00:12:25.502Z,99.99
2017-06-11T00:13:25.691Z,99.99
2017-06-11T00:14:25.597Z,99.99
2017-06-11T00:15:25.585Z,99.99
2017-06-11T00:16:25.578Z,99.99
2017-06-11T00:17:25.577Z,99.99
2017-06-11T00:18:25.579Z,99.99
2017-06-11T00:19:25.579Z,99.99
2017-06-11T00:20:25.558Z,99.99
2017-06-11T00:21:25.579Z,99.99
2017-06-11T00:22:25.578Z,99.99
2017-06-11T00:23:25.583Z,99.99
2017-06-11T00:24:25.583Z,99.99
2017-06-11T00:25:25.586Z,99.99
2017-06-11T00:26:25.594Z,99.99
2017-06-11T00:27:25.609Z,99.99
2017-06-11T00:28:25.511Z,99.99
2017-06-11T00:29:25.604Z,99.99
2017-06-11T00:30:25.609Z,99.99
2017-06-11T00:31:25.601Z,99.99
2017-06-11T00:32:25.564Z,99.99
2017-06-11T00:33:25.520Z,99.99
2017-06-11T00:34:25.519Z,99.99
2017-06-11T00:35:25.622Z,99.99
2017-06-11T00:36:25.587Z,99.99
2017-06-11T00:37:25.586Z,99.99
2017-06-11T00:38:25.588Z,99.99
2017-06-11T00:39:25.592Z,99.99
2017-06-11T00:40:25.588Z,99.99
2017-06-11T00:41:25.812Z,99.99
2017-06-11T00:42:25.577Z,99.99
2017-06-11T00:43:25.592Z,99.99
2017-06-11T00:44:25.687Z,99.99
2017-06-11T00:45:25.672Z,99.99
2017-06-11T00:46:25.625Z,99.99
2017-06-11T00:47:25.578Z,99.99
2017-06-11T00:48:25.596Z,99.99
2017-06-11T00:49:25.523Z,99.99
2017-06-11T00:50:25.610Z,99.99
2017-06-11T00:51:25.609Z,99.99
2017-06-11T00:52:25.625Z,99.99
2017-06-11T00:53:25.580Z,99.99
2017-06-11T00:54:25.617Z,99.99
2017-06-11T00:55:25.672Z,99.99
2017-06-11T00:56:25.579Z,99.99
2017-06-11T00:57:25.586Z,99.99
2017-06-11T00:58:25.585Z,99.99
2017-06-11T00:59:25.586Z,99.99
2017-06-11T01:00:25.586Z,99.99
2017-06-11T01:01:25.592Z,99.99
2017-06-11T01:02:25.583Z,99.99
2017-06-11T01:03:25.590Z,99.99
2017-06-11T01:04:25.590Z,99.99
2017-06-11T01:05:25.598Z,99.99
2017-06-11T01:06:25.620Z,99.99
2017-06-11T01:07:25.555Z,99.99
2017-06-11T01:08:25.609Z,99.99
2017-06-11T01:09:25.533Z,99.99
2017-06-11T01:10:25.630Z,99.99
2017-06-11T01:11:25.543Z,99.99
2017-06-11T01:12:25.596Z,99.99
2017-06-11T01:13:25.541Z,99.99
2017-06-11T01:14:25.608Z,99.99
2017-06-11T01:15:25.547Z,99.99
2017-06-11T01:16:25.597Z,99.99
2017-06-11T01:17:25.606Z,99.99
2017-06-11T01:18:25.596Z,99.99
2017-06-11T01:19:25.594Z,99.99
2017-06-11T01:20:25.601Z,99.99
2017-06-11T01:21:25.597Z,99.99
2017-06-11T01:22:25.600Z,99.99
2017-06-11T01:23:25.597Z,99.99
2017-06-11T01:24:25.604Z,99.99
2017-06-11T01:25:25.601Z,99.99
2017-06-11T01:26:25.632Z,99.99
2017-06-11T01:27:25.611Z,99.99
2017-06-11T01:28:25.616Z,99.99
2017-06-11T01:29:25.614Z,99.99
2017-06-11T01:30:25.632Z,99.99
2017-06-11T01:31:25.640Z,99.99
2017-06-11T01:32:25.646Z,99.99
2017-06-11T01:33:25.551Z,99.99
2017-06-11T01:34:25.629Z,99.99
2017-06-11T01:35:25.547Z,99.99
2017-06-11T01:36:25.641Z,99.99
2017-06-11T01:37:25.612Z,99.99
2017-06-11T01:38:25.635Z,99.99
2017-06-11T01:39:25.598Z,99.99
2017-06-11T01:40:25.631Z,99.99
2017-06-11T01:41:25.555Z,99.99
2017-06-11T01:42:25.629Z,99.99
2017-06-11T01:43:25.639Z,99.99
2017-06-11T01:44:25.586Z,99.99
2017-06-11T01:45:25.580Z,99.99
2017-06-11T01:46:25.584Z,99.99
2017-06-11T01:47:25.592Z,99.99
2017-06-11T01:48:25.545Z,99.99
2017-06-11T01:49:25.590Z,99.99
2017-06-11T01:50:25.545Z,99.99
2017-06-11T01:51:25.548Z,99.99
2017-06-11T01:52:25.472Z,99.99
2017-06-11T01:53:25.587Z,99.99
2017-06-11T01:54:25.629Z,99.99
2017-06-11T01:55:25.734Z,99.99
2017-06-11T01:56:25.708Z,99.99
2017-06-11T01:57:25.630Z,99.99
2017-06-11T01:58:25.629Z,99.99
2017-06-11T01:59:25.627Z,99.99
2017-06-11T02:00:25.628Z,99.99
2017-06-11T02:01:25.632Z,99.99
2017-06-11T02:02:25.662Z,99.99
2017-06-11T02:03:25.632Z,99.99
2017-06-11T02:04:25.538Z,99.99
2017-06-11T02:05:25.626Z,99.99
2017-06-11T02:06:25.537Z,99.99
2017-06-11T02:07:25.591Z,99.99
2017-06-11T02:08:25.554Z,99.99
2017-06-11T02:09:25.555Z,99.99
2017-06-11T02:10:25.556Z,99.99
2017-06-11T02:11:25.544Z,99.99
2017-06-11T02:12:25.523Z,99.99
2017-06-11T02:13:25.535Z,99.99
2017-06-11T02:14:25.640Z,99.99
2017-06-11T02:15:25.625Z,99.99
2017-06-11T02:16:25.571Z,99.99
2017-06-11T02:17:25.623Z,99.99
2017-06-11T02:18:25.656Z,99.99
2017-06-11T02:19:25.677Z,99.99
2017-06-11T02:20:25.575Z,99.99
2017-06-11T02:21:25.651Z,99.99
2017-06-11T02:22:25.673Z,99.99
2017-06-11T02:23:25.581Z,99.99
2017-06-11T02:24:25.672Z,99.99
2017-06-11T02:25:25.673Z,99.99
2017-06-11T02:26:25.626Z,99.99
2017-06-11T02:27:25.662Z,99.99
2017-06-11T02:28:25.659Z,99.99
2017-06-11T02:29:25.585Z,99.99
2017-06-11T02:30:25.673Z,99.99
2017-06-11T02:31:25.677Z,99.99
2017-06-11T02:32:25.707Z,99.99
2017-06-11T02:33:25.662Z,99.99
2017-06-11T02:34:25.745Z,99.99
2017-06-11T02:35:25.667Z,99.99
2017-06-11T02:36:25.665Z,99.99
2017-06-11T02:37:25.583Z,99.99
2017-06-11T02:38:25.671Z,99.99
2017-06-11T02:39:25.676Z,99.99
2017-06-11T02:40:25.667Z,99.99
2017-06-11T02:41:25.662Z,99.99
2017-06-11T02:42:25.591Z,99.99
2017-06-11T02:43:25.681Z,99.99
2017-06-11T02:44:25.668Z,99.99
2017-06-11T02:45:25.637Z,99.99
2017-06-11T02:46:25.676Z,99.99
2017-06-11T02:47:25.660Z,99.99
2017-06-11T02:48:25.678Z,99.99
2017-06-11T02:49:25.651Z,99.99
2017-06-11T02:50:25.674Z,99.99
2017-06-11T02:51:25.686Z,99.99
2017-06-11T02:52:25.675Z,99.99
2017-06-11T02:53:25.668Z,99.99
2017-06-11T02:54:25.671Z,99.99
2017-06-11T02:55:25.599Z,99.99
2017-06-11T02:56:25.639Z,99.99
2017-06-11T02:57:25.683Z,99.99
2017-06-11T02:58:25.588Z,99.99
2017-06-11T02:59:25.693Z,99.99
2017-06-11T03:00:25.638Z,99.99
2017-06-11T03:01:25.676Z,99.99
2017-06-11T03:02:25.693Z,99.99
2017-06-11T03:03:25.682Z,99.99
2017-06-11T03:04:25.661Z,99.99
2017-06-11T03:05:25.662Z,99.99
2017-06-11T03:06:25.667Z,99.99
2017-06-11T03:07:25.662Z,99.99
2017-06-11T03:08:25.667Z,99.99
2017-06-11T03:09:25.666Z,99.99
2017-06-11T03:10:25.653Z,99.99
2017-06-11T03:11:25.666Z,99.99
2017-06-11T03:12:25.668Z,99.99
2017-06-11T03:13:25.666Z,99.99
2017-06-11T03:14:25.597Z,99.99
2017-06-11T03:15:25.632Z,99.99
2017-06-11T03:16:25.596Z,99.99
2017-06-11T03:17:25.590Z,99.99
2017-06-11T03:18:25.595Z,99.99
2017-06-11T03:19:25.596Z,99.99
2017-06-11T03:20:25.597Z,99.99
2017-06-11T03:21:25.596Z,99.99
2017-06-11T03:22:25.632Z,99.99
2017-06-11T03:23:25.632Z,99.99
2017-06-11T03:24:25.676Z,99.99
2017-06-11T03:25:25.675Z,99.99
2017-06-11T03:26:25.678Z,99.99
2017-06-11T03:27:25.675Z,99.99
2017-06-11T03:28:25.681Z,99.99
2017-06-11T03:29:25.682Z,99.99
2017-06-11T03:30:25.677Z,99.99
2017-06-11T03:31:25.676Z,99.99
2017-06-11T03:32:25.678Z,99.99
2017-06-11T03:33:25.680Z,99.99
2017-06-11T03:34:25.703Z,99.99
2017-06-11T03:35:25.615Z,99.99
2017-06-11T03:36:25.699Z,99.99
2017-06-11T03:37:25.707Z,99.99
2017-06-11T03:38:25.699Z,99.99
2017-06-11T03:39:25.614Z,99.99
2017-06-11T03:40:25.703Z,99.99
2017-06-11T03:41:25.696Z,99.99
2017-06-11T03:42:25.707Z,99.99
2017-06-11T03:43:25.613Z,99.99
2017-06-11T03:44:25.684Z,99.99
2017-06-11T03:45:25.684Z,99.99
2017-06-11T03:46:25.685Z,99.99
2017-06-11T03:47:25.686Z,99.99
2017-06-11T03:48:25.707Z,99.99
2017-06-11T03:49:25.687Z,99.99
2017-06-11T03:50:25.689Z,99.99
2017-06-11T03:51:25.689Z,99.99
2017-06-11T03:52:25.689Z,99.99
2017-06-11T03:53:25.690Z,99.99
2017-06-11T03:54:25.702Z,99.99
2017-06-11T03:55:25.715Z,99.99
2017-06-11T03:56:25.674Z,99.99
2017-06-11T03:57:25.620Z,99.99
2017-06-11T03:58:25.708Z,99.99
2017-06-11T03:59:25.705Z,99.99
2017-06-11T04:00:25.711Z,99.99
2017-06-11T04:01:25.633Z,99.99
2017-06-11T04:02:25.710Z,99.99
2017-06-11T04:03:25.718Z,99.99
2017-06-11T04:04:25.696Z,99.99
2017-06-11T04:05:25.694Z,99.99
2017-06-11T04:06:25.696Z,99.99
2017-06-11T04:07:25.702Z,99.67
2017-06-11T04:08:25.699Z,99.56
2017-06-11T04:09:25.699Z,99.02
2017-06-11T04:10:25.697Z,98.88
2017-06-11T04:11:25.697Z,98.69
2017-06-11T04:12:25.699Z,98.64
2017-06-11T04:13:25.699Z,98.42
2017-06-11T04:14:25.673Z,98.21
2017-06-11T04:15:25.638Z,98.04
2017-06-11T04:16:25.698Z,98.10
2017-06-11T04:17:25.730Z,97.69
2017-06-11T04:18:25.643Z,97.58
2017-06-11T04:19:25.718Z,97.42
2017-06-11T04:20:25.719Z,97.42
2017-06-11T04:21:25.722Z,96.99
2017-06-11T04:22:25.727Z,97.21
2017-06-11T04:23:25.685Z,97.12
2017-06-11T04:24:25.683Z,96.93
2017-06-11T04:25:25.683Z,97.10
2017-06-11T04:26:25.683Z,96.91
2017-06-11T04:27:25.728Z,96.96
2017-06-11T04:28:25.731Z,96.91
2017-06-11T04:29:25.685Z,96.83
2017-06-11T04:30:25.648Z,97.04
2017-06-11T04:31:25.806Z,97.21
2017-06-11T04:32:25.736Z,97.07
2017-06-11T04:33:25.720Z,97.10
2017-06-11T04:34:25.726Z,97.02
2017-06-11T04:35:25.693Z,96.88
2017-06-11T04:36:25.696Z,96.61
2017-06-11T04:37:25.731Z,96.39
2017-06-11T04:38:25.731Z,96.42
2017-06-11T04:39:25.737Z,96.50
2017-06-11T04:40:25.836Z,96.53
2017-06-11T04:41:25.738Z,96.26
2017-06-11T04:42:25.656Z,95.94
2017-06-11T04:43:25.716Z,96.04
2017-06-11T04:44:25.653Z,95.85
2017-06-11T04:45:25.736Z,95.80
2017-06-11T04:46:25.737Z,95.75
2017-06-11T04:47:25.717Z,95.53
2017-06-11T04:48:25.654Z,95.56
2017-06-11T04:49:25.844Z,95.50
2017-06-11T04:50:25.730Z,95.15
2017-06-11T04:51:25.739Z,95.15
2017-06-11T04:52:25.700Z,95.26
2017-06-11T04:53:25.748Z,95.53
2017-06-11T04:54:25.725Z,95.75
2017-06-11T04:55:25.727Z,95.75
2017-06-11T04:56:25.811Z,95.66
2017-06-11T04:57:25.727Z,95.64
2017-06-11T04:58:25.732Z,95.75
2017-06-11T04:59:25.725Z,95.72
2017-06-11T05:00:25.724Z,95.77
2017-06-11T05:01:25.727Z,95.91
2017-06-11T05:02:25.726Z,96.02
2017-06-11T05:03:25.730Z,96.20
2017-06-11T05:04:25.728Z,95.96
2017-06-11T05:05:25.725Z,95.98
2017-06-11T05:07:25.703Z,96.20
2017-06-11T05:08:25.726Z,96.07
2017-06-11T05:09:25.732Z,96.09
2017-06-11T05:10:25.735Z,95.88
2017-06-11T05:11:25.730Z,96.04
2017-06-11T05:12:25.732Z,95.77
2017-06-11T05:13:25.734Z,95.98
2017-06-11T05:14:25.760Z,95.64
2017-06-11T05:15:25.729Z,94.07
2017-06-11T05:16:25.745Z,94.15
2017-06-11T05:17:25.712Z,93.89
2017-06-11T05:18:25.755Z,93.37
2017-06-11T05:19:25.806Z,93.05
2017-06-11T05:20:25.712Z,91.41
2017-06-11T05:21:25.754Z,91.09
2017-06-11T05:22:25.716Z,89.40
2017-06-11T05:23:25.749Z,90.34
2017-06-11T05:24:25.726Z,88.76
2017-06-11T05:25:25.725Z,88.65
2017-06-11T05:26:25.728Z,88.84
2017-06-11T05:27:25.726Z,88.23
2017-06-11T05:28:25.729Z,86.54
2017-06-11T05:29:25.728Z,86.73
2017-06-11T05:30:25.727Z,87.00
2017-06-11T05:31:25.725Z,85.77
2017-06-11T05:32:25.723Z,86.41
2017-06-11T05:33:25.732Z,85.64
2017-06-11T05:34:25.736Z,86.44
2017-06-11T05:35:25.745Z,86.25
2017-06-11T05:36:25.738Z,83.97
2017-06-11T05:37:25.737Z,84.26
2017-06-11T05:38:25.739Z,84.52
2017-06-11T05:39:25.739Z,84.39
2017-06-11T05:40:25.744Z,84.34
2017-06-11T05:41:25.741Z,84.79
2017-06-11T05:42:25.740Z,85.08
2017-06-11T05:43:25.743Z,85.03
2017-06-11T05:44:25.671Z,85.32
2017-06-11T05:45:25.757Z,86.01
2017-06-11T05:46:25.766Z,85.35
2017-06-11T05:47:25.746Z,85.08
2017-06-11T05:48:25.683Z,84.71
2017-06-11T05:49:25.676Z,83.36
2017-06-11T05:50:25.688Z,83.73
2017-06-11T05:51:25.767Z,82.21
2017-06-11T05:52:25.772Z,82.61
2017-06-11T05:53:25.680Z,80.52
2017-06-11T05:54:25.768Z,80.63
2017-06-11T05:55:25.762Z,80.73
2017-06-11T05:56:25.766Z,78.91
2017-06-11T05:57:25.688Z,76.86
2017-06-11T05:58:25.778Z,77.81
2017-06-11T05:59:25.770Z,75.99
2017-06-11T06:00:25.777Z,77.23
2017-06-11T06:01:25.684Z,77.94
2017-06-11T06:02:25.683Z,75.78
2017-06-11T06:03:25.688Z,74.55
2017-06-11T06:04:25.779Z,75.73
2017-06-11T06:05:25.638Z,72.93
2017-06-11T06:06:25.651Z,72.48
2017-06-11T06:07:25.744Z,72.48
2017-06-11T06:08:25.666Z,71.26
2017-06-11T06:09:25.649Z,71.26
2017-06-11T06:10:25.746Z,71.89
2017-06-11T06:11:25.731Z,72.95
2017-06-11T06:12:25.663Z,71.75
2017-06-11T06:13:25.737Z,71.91
2017-06-11T06:14:25.701Z,70.60
2017-06-11T06:15:25.703Z,71.07
2017-06-11T06:16:25.697Z,70.37
2017-06-11T06:17:25.690Z,69.93
2017-06-11T06:18:25.791Z,69.51
2017-06-11T06:19:25.788Z,69.26
2017-06-11T06:20:25.790Z,69.28
2017-06-11T06:21:25.701Z,69.70
2017-06-11T06:22:25.705Z,69.07
2017-06-11T06:23:25.797Z,69.20
2017-06-11T06:24:25.777Z,69.54
2017-06-11T06:25:25.766Z,69.98
2017-06-11T06:26:25.767Z,68.53
2017-06-11T06:27:25.769Z,68.45
2017-06-11T06:28:25.766Z,67.25
2017-06-11T06:29:25.768Z,68.94
2017-06-11T06:30:25.770Z,67.67
2017-06-11T06:31:25.769Z,68.43
2017-06-11T06:32:25.769Z,67.18
2017-06-11T06:33:25.772Z,66.92
2017-06-11T06:34:25.775Z,66.01
2017-06-11T06:35:25.771Z,66.50
2017-06-11T06:36:25.771Z,66.92
2017-06-11T06:37:25.773Z,67.49
2017-06-11T06:38:25.772Z,66.97
2017-06-11T06:39:25.778Z,67.93
2017-06-11T06:40:25.774Z,65.94
2017-06-11T06:41:25.776Z,66.06
2017-06-11T06:42:25.775Z,66.50
2017-06-11T06:43:25.777Z,64.95
2017-06-11T06:44:25.777Z,65.83
2017-06-11T06:45:25.798Z,65.22
2017-06-11T06:46:25.797Z,65.78
2017-06-11T06:47:25.791Z,66.01
2017-06-11T06:48:25.709Z,67.25
2017-06-11T06:49:25.798Z,68.66
2017-06-11T06:50:25.878Z,68.06
2017-06-11T06:51:25.809Z,67.75
2017-06-11T06:52:25.717Z,68.24
2017-06-11T06:53:25.805Z,68.06
2017-06-11T06:54:25.721Z,68.68
2017-06-11T06:55:25.807Z,68.76
2017-06-11T06:56:25.718Z,69.51
2017-06-11T06:57:25.815Z,69.77
2017-06-11T06:58:25.808Z,69.26
2017-06-11T06:59:25.724Z,68.97
2017-06-11T07:00:25.809Z,68.19
2017-06-11T07:01:25.833Z,68.58
2017-06-11T07:02:25.860Z,68.99
2017-06-11T07:03:25.715Z,67.77
2017-06-11T07:04:25.723Z,68.66
2017-06-11T07:05:25.720Z,67.54
2017-06-11T07:06:25.767Z,67.10
2017-06-11T07:07:25.814Z,67.80
2017-06-11T07:08:25.814Z,67.54
2017-06-11T07:09:25.814Z,67.41
2017-06-11T07:10:25.784Z,67.02
2017-06-11T07:11:25.789Z,66.69
2017-06-11T07:12:25.719Z,66.64
2017-06-11T07:13:25.809Z,66.92
2017-06-11T07:14:25.819Z,66.40
2017-06-11T07:15:25.693Z,67.64
2017-06-11T07:16:25.700Z,66.74
2017-06-11T07:17:25.767Z,66.97
2017-06-11T07:18:25.759Z,66.01
2017-06-11T07:19:25.711Z,66.01
2017-06-11T07:20:25.716Z,65.32
2017-06-11T07:21:25.702Z,65.94
2017-06-11T07:22:25.702Z,65.81
2017-06-11T07:23:25.715Z,65.14
2017-06-11T07:24:25.717Z,64.21
2017-06-11T07:25:25.801Z,64.49
2017-06-11T07:26:25.803Z,62.40
2017-06-11T07:27:25.799Z,63.62
2017-06-11T07:28:25.804Z,62.74
2017-06-11T07:29:25.808Z,63.18
2017-06-11T07:30:25.811Z,62.48
2017-06-11T07:31:25.913Z,64.02
2017-06-11T07:32:25.808Z,63.77
2017-06-11T07:33:25.812Z,63.20
2017-06-11T07:34:25.813Z,62.10
2017-06-11T07:35:25.834Z,60.99
2017-06-11T07:36:25.826Z,62.48
2017-06-11T07:37:25.834Z,62.04
2017-06-11T07:38:25.830Z,61.97
2017-06-11T07:39:25.834Z,61.71
2017-06-11T07:40:25.835Z,62.58
2017-06-11T07:41:25.752Z,61.50
2017-06-11T07:42:25.750Z,61.76
2017-06-11T07:43:25.750Z,61.46
2017-06-11T07:44:25.816Z,62.61
2017-06-11T07:45:25.752Z,60.89
2017-06-11T07:46:25.777Z,61.97
2017-06-11T07:47:25.817Z,62.10
2017-06-11T07:48:25.839Z,60.05
2017-06-11T07:49:25.836Z,60.05
2017-06-11T07:50:25.754Z,60.66
2017-06-11T07:51:25.848Z,58.87
2017-06-11T07:52:25.888Z,60.48
2017-06-11T07:53:25.759Z,58.53
2017-06-11T07:54:25.818Z,60.27
2017-06-11T07:55:25.812Z,59.17
2017-06-11T07:56:25.808Z,59.78
2017-06-11T07:57:25.811Z,60.78
2017-06-11T07:58:25.811Z,60.30
2017-06-11T07:59:25.821Z,61.35
2017-06-11T08:00:25.811Z,60.99
2017-06-11T08:01:25.838Z,58.74
2017-06-11T08:02:25.811Z,58.53
2017-06-11T08:03:25.814Z,59.61
2017-06-11T08:04:25.814Z,58.02
2017-06-11T08:05:25.738Z,58.71
2017-06-11T08:06:25.803Z,58.12
2017-06-11T08:07:25.830Z,57.00
2017-06-11T08:08:25.790Z,56.69
2017-06-11T08:09:25.813Z,56.13
2017-06-11T08:10:25.796Z,55.35
2017-06-11T08:11:25.836Z,56.31
2017-06-11T08:12:25.753Z,55.80
2017-06-11T08:13:25.861Z,56.21
2017-06-11T08:14:25.801Z,54.89
2017-06-11T08:15:25.764Z,57.18
2017-06-11T08:16:25.841Z,55.45
2017-06-11T08:17:25.777Z,55.88
2017-06-11T08:18:25.853Z,55.45
2017-06-11T08:19:25.852Z,53.84
2017-06-11T08:20:25.854Z,54.63
2017-06-11T08:21:25.853Z,56.03
2017-06-11T08:22:25.829Z,53.31
2017-06-11T08:23:25.854Z,56.26
2017-06-11T08:24:25.856Z,56.39
2017-06-11T08:25:25.857Z,55.32
2017-06-11T08:26:25.857Z,53.67
2017-06-11T08:27:25.806Z,54.48
2017-06-11T08:28:25.856Z,55.88
2017-06-11T08:29:25.812Z,54.53
2017-06-11T08:30:25.768Z,54.94
2017-06-11T08:31:25.864Z,53.42
2017-06-11T08:32:25.857Z,55.06
2017-06-11T08:33:25.781Z,54.23
2017-06-11T08:34:25.780Z,54.73
2017-06-11T08:35:25.838Z,54.23
2017-06-11T08:36:25.830Z,53.11
2017-06-11T08:37:25.832Z,54.02
2017-06-11T08:38:25.830Z,53.56
2017-06-11T08:39:25.835Z,53.42
2017-06-11T08:40:25.836Z,52.81
2017-06-11T08:41:25.838Z,52.88
2017-06-11T08:42:25.833Z,52.27
2017-06-11T08:43:25.839Z,51.89
2017-06-11T08:44:25.836Z,53.34
2017-06-11T08:45:25.826Z,54.48
2017-06-11T08:46:25.866Z,52.45
2017-06-11T08:47:25.883Z,53.44
2017-06-11T08:48:25.875Z,51.54
2017-06-11T08:49:25.829Z,54.15
2017-06-11T08:50:25.787Z,52.96
2017-06-11T08:51:25.863Z,52.60
2017-06-11T08:52:25.879Z,52.90
2017-06-11T08:53:25.790Z,53.51
2017-06-11T08:54:25.832Z,54.96
2017-06-11T08:55:25.869Z,52.78
2017-06-11T08:56:25.857Z,52.22
2017-06-11T08:57:25.856Z,54.15
2017-06-11T08:58:25.870Z,52.12
2017-06-11T08:59:25.881Z,51.99
2017-06-11T09:00:25.858Z,51.71
2017-06-11T09:01:25.858Z,52.55
2017-06-11T09:02:25.861Z,51.26
2017-06-11T09:03:25.863Z,49.52
2017-06-11T09:04:25.857Z,50.22
2017-06-11T09:05:25.847Z,49.95
2017-06-11T09:06:25.845Z,52.02
2017-06-11T09:07:25.849Z,50.88
2017-06-11T09:08:25.844Z,50.91
2017-06-11T09:09:25.849Z,51.54
2017-06-11T09:10:25.846Z,50.02
2017-06-11T09:11:25.846Z,50.91
2017-06-11T09:12:25.848Z,49.75
2017-06-11T09:13:25.850Z,50.33
2017-06-11T09:14:25.872Z,47.63
2017-06-11T09:15:25.881Z,50.05
2017-06-11T09:16:25.881Z,48.44
2017-06-11T09:17:25.882Z,49.29
2017-06-11T09:18:25.841Z,49.19
2017-06-11T09:19:25.841Z,49.49
2017-06-11T09:20:25.894Z,48.01
2017-06-11T09:21:25.802Z,46.88
2017-06-11T09:22:25.886Z,48.94
2017-06-11T09:23:25.888Z,45.30
2017-06-11T09:24:25.886Z,47.15
2017-06-11T09:25:25.884Z,50.55
2017-06-11T09:26:25.868Z,47.06
2017-06-11T09:27:25.871Z,48.34
2017-06-11T09:28:25.868Z,47.03
2017-06-11T09:29:25.870Z,48.23
2017-06-11T09:30:25.871Z,47.28
2017-06-11T09:31:25.872Z,49.12
2017-06-11T09:32:25.872Z,49.37
2017-06-11T09:33:25.873Z,50.35
2017-06-11T09:34:25.868Z,50.78
2017-06-11T09:35:25.874Z,52.20
2017-06-11T09:36:25.863Z,50.05
2017-06-11T09:37:25.865Z,48.41
2017-06-11T09:38:25.861Z,49.47
2017-06-11T09:39:25.863Z,50.30
2017-06-11T09:40:25.866Z,49.82
2017-06-11T09:41:25.866Z,50.60
2017-06-11T09:42:25.865Z,51.37
2017-06-11T09:43:25.864Z,51.62
2017-06-11T09:44:25.867Z,50.38
2017-06-11T09:45:25.863Z,51.97
2017-06-11T09:46:25.882Z,52.45
2017-06-11T09:47:25.849Z,49.85
2017-06-11T09:48:25.850Z,47.15
2017-06-11T09:49:25.853Z,47.76
2017-06-11T09:50:25.858Z,47.88
2017-06-11T09:51:25.810Z,47.51
2017-06-11T09:52:25.858Z,48.48
2017-06-11T09:53:25.812Z,49.80
2017-06-11T09:54:25.861Z,48.21
2017-06-11T09:55:25.802Z,48.19
2017-06-11T09:56:25.863Z,47.81
2017-06-11T09:57:25.905Z,47.28
2017-06-11T09:58:25.850Z,47.36
2017-06-11T09:59:25.826Z,48.23
2017-06-11T10:00:25.880Z,46.43
2017-06-11T10:01:25.904Z,48.61
2017-06-11T10:02:25.842Z,48.21
2017-06-11T10:03:25.908Z,51.16
2017-06-11T10:04:25.905Z,48.64
2017-06-11T10:05:25.903Z,45.55
2017-06-11T10:06:25.911Z,45.98
2017-06-11T10:07:25.872Z,44.85
2017-06-11T10:08:25.825Z,46.10
2017-06-11T10:09:25.834Z,47.31
2017-06-11T10:10:25.869Z,45.40
2017-06-11T10:11:25.906Z,43.75
2017-06-11T10:12:25.891Z,44.17
2017-06-11T10:13:25.831Z,44.77
2017-06-11T10:14:25.874Z,46.75
2017-06-11T10:15:25.906Z,46.23
2017-06-11T10:16:25.884Z,47.33
2017-06-11T10:17:25.882Z,46.93
2017-06-11T10:18:25.883Z,44.22
2017-06-11T10:19:25.887Z,44.17
2017-06-11T10:20:25.885Z,42.60
2017-06-11T10:21:25.886Z,43.02
2017-06-11T10:22:25.890Z,46.20
2017-06-11T10:23:25.892Z,43.10
2017-06-11T10:24:25.886Z,44.57
2017-06-11T10:25:25.899Z,44.64
2017-06-11T10:26:25.913Z,46.23
2017-06-11T10:27:25.864Z,45.40
2017-06-11T10:28:25.922Z,46.63
2017-06-11T10:29:25.834Z,47.43
2017-06-11T10:30:25.840Z,46.40
2017-06-11T10:31:25.920Z,45.05
2017-06-11T10:32:25.838Z,47.23
2017-06-11T10:33:25.916Z,47.83
2017-06-11T10:34:25.886Z,47.45
2017-06-11T10:35:25.924Z,46.83
2017-06-11T10:36:25.905Z,47.73
2017-06-11T10:37:25.927Z,45.62
2017-06-11T10:38:25.927Z,46.07
2017-06-11T10:39:25.907Z,47.31
2017-06-11T10:40:25.929Z,48.81
2017-06-11T10:41:25.939Z,48.69
2017-06-11T10:42:25.930Z,48.48
2017-06-11T10:43:25.938Z,47.53
2017-06-11T10:44:25.938Z,49.34
2017-06-11T10:45:25.850Z,47.43
2017-06-11T10:46:25.931Z,47.31
2017-06-11T10:47:25.934Z,47.83
2017-06-11T10:48:25.930Z,48.19
2017-06-11T10:49:25.846Z,46.95
2017-06-11T10:50:25.896Z,47.13
2017-06-11T10:51:25.845Z,46.65
2017-06-11T10:52:25.934Z,45.70
2017-06-11T10:53:25.936Z,47.31
2017-06-11T10:54:25.939Z,45.43
2017-06-11T10:55:25.935Z,46.70
2017-06-11T10:56:25.904Z,46.20
2017-06-11T10:57:26.007Z,46.32
2017-06-11T10:58:25.907Z,47.23
2017-06-11T10:59:25.910Z,47.06
2017-06-11T11:00:25.910Z,47.61
2017-06-11T11:01:25.908Z,48.64
2017-06-11T11:02:25.907Z,47.83
2017-06-11T11:03:25.909Z,46.98
2017-06-11T11:04:25.910Z,46.58
2017-06-11T11:05:25.906Z,43.82
2017-06-11T11:06:25.946Z,44.55
2017-06-11T11:07:25.939Z,44.22
2017-06-11T11:08:25.854Z,45.85
2017-06-11T11:09:25.949Z,45.12
2017-06-11T11:10:25.947Z,45.77
2017-06-11T11:11:25.945Z,46.35
2017-06-11T11:12:25.944Z,45.65
2017-06-11T11:13:25.925Z,44.87
2017-06-11T11:14:25.863Z,48.34
2017-06-11T11:15:25.869Z,45.02
2017-06-11T11:16:25.921Z,44.77
2017-06-11T11:17:25.917Z,45.07
2017-06-11T11:18:25.922Z,47.06
2017-06-11T11:19:25.920Z,48.19
2017-06-11T11:20:25.922Z,46.27
2017-06-11T11:21:25.919Z,45.40
2017-06-11T11:22:25.917Z,46.50
2017-06-11T11:23:25.947Z,46.48
2017-06-11T11:24:25.923Z,46.05
2017-06-11T11:25:25.923Z,45.85
2017-06-11T11:26:25.936Z,45.32
2017-06-11T11:27:25.937Z,45.90
2017-06-11T11:28:25.939Z,44.50
2017-06-11T11:29:25.938Z,43.33
2017-06-11T11:30:25.942Z,42.87
2017-06-11T11:31:25.938Z,43.55
2017-06-11T11:32:25.941Z,43.20
2017-06-11T11:33:25.939Z,46.40
2017-06-11T11:34:25.936Z,45.85
2017-06-11T11:35:25.940Z,44.25
2017-06-11T11:36:25.940Z,43.42
2017-06-11T11:37:26.022Z,46.15
2017-06-11T11:38:25.957Z,45.65
2017-06-11T11:39:25.941Z,42.23
2017-06-11T11:40:25.939Z,42.33
2017-06-11T11:41:25.944Z,43.60
2017-06-11T11:42:25.939Z,44.82
2017-06-11T11:43:25.942Z,43.45
2017-06-11T11:44:25.941Z,43.27
2017-06-11T11:45:25.942Z,42.53
2017-06-11T11:46:25.934Z,41.85
2017-06-11T11:47:25.928Z,41.88
2017-06-11T11:48:25.933Z,44.50
2017-06-11T11:49:25.934Z,40.59
2017-06-11T11:50:25.935Z,40.31
2017-06-11T11:51:25.933Z,40.88
2017-06-11T11:52:25.941Z,40.93
2017-06-11T11:53:25.934Z,42.62
2017-06-11T11:54:25.937Z,39.74
2017-06-11T11:55:25.937Z,42.65
2017-06-11T11:56:25.939Z,40.34
2017-06-11T11:57:25.941Z,40.51
2017-06-11T11:58:25.938Z,40.81
2017-06-11T11:59:25.940Z,38.28
2017-06-11T12:00:25.939Z,40.34
2017-06-11T12:01:25.942Z,41.38
2017-06-11T12:02:25.947Z,39.62
2017-06-11T12:03:25.941Z,39.91
2017-06-11T12:04:25.940Z,40.24
2017-06-11T12:05:25.942Z,41.13
2017-06-11T12:06:25.892Z,37.88
2017-06-11T12:07:26.058Z,37.61
2017-06-11T12:08:25.934Z,38.82
2017-06-11T12:09:26.072Z,39.89
2017-06-11T12:10:25.896Z,41.70
2017-06-11T12:11:25.900Z,41.21
2017-06-11T12:12:25.902Z,40.46
2017-06-11T12:13:25.976Z,41.03
2017-06-11T12:14:25.979Z,43.35
2017-06-11T12:15:25.891Z,37.81
2017-06-11T12:16:25.940Z,38.65
2017-06-11T12:17:25.980Z,40.34
2017-06-11T12:18:25.984Z,40.06
2017-06-11T12:19:25.982Z,40.76
2017-06-11T12:20:25.960Z,44.02
2017-06-11T12:21:25.946Z,42.18
2017-06-11T12:22:25.974Z,42.35
2017-06-11T12:23:25.987Z,42.65
2017-06-11T12:24:25.942Z,43.05
2017-06-11T12:25:25.990Z,41.93
2017-06-11T12:26:25.954Z,42.67
2017-06-11T12:27:25.955Z,42.85
2017-06-11T12:28:25.955Z,44.15
2017-06-11T12:29:25.954Z,46.40
2017-06-11T12:30:25.957Z,42.67
2017-06-11T12:31:25.957Z,44.02
2017-06-11T12:32:25.963Z,44.17
2017-06-11T12:33:25.963Z,46.50
2017-06-11T12:34:25.961Z,44.70
2017-06-11T12:35:25.964Z,44.55
2017-06-11T12:36:25.962Z,44.32
2017-06-11T12:37:25.905Z,43.97
2017-06-11T12:38:25.993Z,42.37
2017-06-11T12:39:25.901Z,42.60
2017-06-11T12:40:25.992Z,45.27
2017-06-11T12:41:25.984Z,42.70
2017-06-11T12:42:25.905Z,40.43
2017-06-11T12:43:26.115Z,41.70
2017-06-11T12:44:25.989Z,41.80
2017-06-11T12:45:25.994Z,41.61
2017-06-11T12:46:26.000Z,39.94
2017-06-11T12:47:25.996Z,38.70
2017-06-11T12:48:25.958Z,39.44
2017-06-11T12:49:25.998Z,40.59
2017-06-11T12:50:25.916Z,38.50
2017-06-11T12:51:26.000Z,38.80
2017-06-11T12:52:25.922Z,39.19
2017-06-11T12:53:25.991Z,41.03